Norwich, ND

7:27 AM CDT on August 21, 2014 (GMT -0500)
Deering Mobile Home Estates | Change Station
CLOSE
Current Station
Personal Weather Station
Location: Deering, ND
Elevation: 1549 ft
Nearby Weather Stations

Elev 1549 ft 48.40 °N, 101.05 °W | Updated 11 minutes ago

Scattered Clouds
Scattered Clouds
63.3 °F
Feels Like 63.3 °F
N
0.0
Wind Variable Wind from West

Today
High -- | Low -- °F
--% Chance of Precip.
Yesterday
High -- | Low -- °F
Precip. -- in
6:46 AM 8:46 PM
Waning Crescent, 14% visible
Pressure 29.78 in
Visibility 8.0 miles
Clouds Scattered Clouds 800 ft
Dew Point 61 °F
Humidity 92%
Rainfall 0.11 in
Snow Depth Not available.
UV 0 out of 12
Pollen 6.50 out of 12
Air Quality Not available.
Flu Activity Not available.
METAR KMOT 211154Z 31006KT 8SM SCT008 17/16 A2979 RMK AO2 SLP083 60000 70051 T01720161 10183 20172 51005

More Conditions Fewer Conditions

Pressure 29.78 in
Visibility 8.0 miles
Clouds Scattered Clouds 800 ft
Dew Point 61 °F
Humidity 92%
Rainfall 0.11 in
Snow Depth Not available.
UV 0 out of 12
Pollen 6.50 out of 12
Air Quality Not available.
Flu Activity Not available.
METAR KMOT 211154Z 31006KT 8SM SCT008 17/16 A2979 RMK AO2 SLP083 60000 70051 T01720161 10183 20172 51005

More Conditions Fewer Conditions

10-Day Weather Forecast

Almanac

Astronomy

Aug. 21, 2014 Rise Set
Actual Time 6:46 AM CDT 8:46 PM CDT
Civil Twilight 6:12 AM CDT 9:19 PM CDT
Nautical Twilight 5:31 AM CDT 10:01 PM CDT
Astronomical Twilight 4:44 AM CDT 10:47 PM CDT
Moon 3:10 AM CDT 6:23 PM CDT
Length of Visible Light 15h 07m
Length of Day
14h 00m
Tomorrow will be 3m 16s shorter.
Waning Crescent, 14% of the Moon is Illuminated
Today
Waning Crescent
Aug 25
New
Sep 2
First Quarter
Sep 8
Full
Sep 15
Last Quarter

Today's Extremes

State Highs State Lows

Community

WunderPhotos

Upload Photos

1,745,890 photos uploaded!

WunderBlogs® & News

Nearby

Snow Depth

Station Depth Elevation
No new snow has been reported.

Earthquake Activity

City Distance Mag. Time & Date
No recent earthquake activity has been reported nearby.
Minimum magnitude displayed is 2.5.

Coastal Water Temperatures

Place Temperature
No Stations Reporting

Nearby Weather Stations